KSAT - San Antonio Intl, TX, US

Issued at 0540 UTC 13 Aug 2022
Updated at 1006 UTC 13 Aug 2022
Potential Impact None Slight Moderate High
Time0951Z 13/11Z 13/12Z 13/13Z 13/14Z 13/15Z 13/16Z 13/17Z 13/18Z 13/19Z 13/20Z 13/21Z 13/22Z 13/23Z>>
Type OBS PRVL PRVL PRVL PRVL PRVL PRVL PRVL PRVL
  [PRB30]  
PRVL
  [PRB30]  
PRVL
  [PRB30]  
PRVL
  [PRB30]  
PRVL
  [PRB30]  
PRVL
  [PRB30]  
VIS 10 >6 >6 >6 >6 >6 >6 >6 >6
  [4]  
>6
  [4]  
>6
  [4]  
>6
  [4]  
>6
  [4]  
>6
  [4]  
CIG -- -- -- -- -- -- -- 120 120
  [100]  
120
  [100]  
120
  [100]  
120
  [100]  
120
  [100]  
120
  [100]  
Cover SCT SCT SCT SCT SCT SCT SCT BKN BKN
  [BKN]  
BKN
  [BKN]  
BKN
  [BKN]  
BKN
  [BKN]  
BKN
  [BKN]  
BKN
  [BKN]  
FltCat VFR VFR VFR VFR VFR VFR VFR VFR VFR
  [MVFR]  
VFR
  [MVFR]  
VFR
  [MVFR]  
VFR
  [MVFR]  
VFR
  [MVFR]  
VFR
  [MVFR]  
WX -- -- -- -- -- -- -- -- --
  [TSRA BR]  
--
  [TSRA BR]  
--
  [TSRA BR]  
--
  [TSRA BR]  
--
  [TSRA BR]  
--
  [TSRA BR]  
WDir VRB 140 140 140 140 140 140 40 40
[40]
40
[40]
40
[40]
40
[40]
40
[40]
40
[40]
WSpd 0 5 5 5 5 5 5 9 9
  [9]  
9
  [9]  
9
  [9]  
9
  [9]  
9
  [9]  
9
  [9]  
WGst -- -- -- -- -- -- -- -- --
  [--]  
--
  [--]  
--
  [--]  
--
  [--]  
--
  [--]  
--
  [--]  
WSHgt -- -- -- -- -- -- -- -- --
[--]
--
[--]
--
[--]
--
[--]
--
[--]
--
[--]
WSDir -- -- -- -- -- -- -- -- --
[--]
--
[--]
--
[--]
--
[--]
--
[--]
--
[--]
WSSpd -- -- -- -- -- -- -- -- --
[--]
--
[--]
--
[--]
--
[--]
--
[--]
--
[--]
Raw TAF
KSAT 130540Z 1306/1412 14005KT P6SM SCT150 SCT250
  FM131700 04009KT P6SM SCT070 BKN120
  PROB30 1318/1324 4SM TSRA BR BKN100CB
  FM140100 09008KT P6SM SCT120 BKN250


Raw METAR
KSAT 130951Z 00000KT 10SM FEW080 SCT250 26/22 A3001 RMK AO2 SLP141 T02560222 $
KSAT 130851Z 00000KT 10SM FEW080 BKN250 27/23 A3000 RMK AO2 SLP140 T02670228 52001 $
KSAT 130751Z 12003KT 10SM SCT080 BKN250 27/22 A3000 RMK AO2 SLP140 T02670222 $

METAR Board
Radar Display
Forecast Discussion
For situational awareness. Not to be used for flight planning purposes.